ADDS METAR Data INFO
IDs: Format: Raw Decoded Include TAF

Data at: 0718 UTC 19 Oct 2017

KLWD 190653Z AUTO 17004KT 10SM CLR 13/09 A3006 RMK AO2 SLP175 T01280089
KLWD 190553Z AUTO 00000KT 10SM CLR 12/09 A3005 RMK AO2 SLP174 T01170089 10172 20117 402280089 51001
KLWD 190453Z AUTO 20005KT 10SM CLR 13/09 A3005 RMK AO2 SLP173 T01330089
KLWD 190353Z AUTO 21004KT 10SM CLR 14/09 A3005 RMK AO2 SLP174 T01390089
KLWD 190253Z AUTO 20005KT 10SM CLR 16/09 A3005 RMK AO2 SLP174 T01560089 51016
KLWD 190153Z AUTO 24004KT 10SM CLR 15/09 A3003 RMK AO2 SLP171 T01500089
KLWD 190053Z AUTO 20007KT 10SM CLR 16/09 A3002 RMK AO2 SLP166 T01560089
KLWD 182353Z AUTO 20007KT 10SM CLR 17/09 A3000 RMK AO2 SLP158 T01720094 10228 20172 53011
KLWD 182253Z AUTO 21008KT 10SM CLR 21/10 A2998 RMK AO2 SLP150 T02060100
KLWD 182153Z AUTO 19011KT 10SM CLR 22/09 A2997 RMK AO2 SLP147 T02220094
KLWD 182053Z AUTO 20013KT 10SM CLR 22/09 A2996 RMK AO2 SLP144 T02220094 55007
KLWD 181953Z AUTO 18015G21KT 10SM CLR 22/09 A2996 RMK AO2 SLP140 T02220089
KLWD 181853Z AUTO 19015G23KT 10SM CLR 22/09 A2996 RMK AO2 SLP142 T02170094
KLWD 181753Z AUTO 18016G21KT 10SM CLR 21/09 A2999 RMK AO2 SLP151 T02060089 10206 20089 58013
KLWD 181653Z AUTO 19014G22KT 10SM CLR 19/09 A3001 RMK AO2 SLP159 T01890089
KLWD 181553Z AUTO 20012KT 10SM CLR 17/09 A3002 RMK AO2 SLP164 T01670089
KLWD 181453Z AUTO 19010KT 10SM CLR 14/08 A3003 RMK AO2 SLP167 T01440078 50000
KLWD 181353Z AUTO 18010KT 10SM CLR 11/08 A3004 RMK AO2 SLP171 T01060078
KLWD 181253Z AUTO 18007KT 10SM CLR 09/07 A3004 RMK AO2 SLP172 T00890067
KLWD 181153Z AUTO 18009KT 10SM CLR 09/07 A3003 RMK AO2 SLP168 T00940072 10128 20094 55001
KLWD 181053Z AUTO 18010KT 10SM CLR 10/07 A3003 RMK AO2 SLP167 T01000072
KLWD 180953Z AUTO 18009KT 10SM CLR 09/07 A3002 RMK AO2 SLP165 T00940072
KLWD 180853Z AUTO 17007KT 10SM CLR 11/07 A3003 RMK AO2 SLP167 T01060072 58008
KLWD 180753Z AUTO 20011KT 10SM CLR 13/08 A3004 RMK AO2 SLP171 T01280078
KLWD 180653Z AUTO 20011KT 10SM CLR 13/08 A3005 RMK AO2 SLP173 T01280078
KLWD 180553Z AUTO 19008KT 10SM CLR 13/08 A3005 RMK AO2 SLP175 T01280078 10172 20122 402170078 57006
KLWD 180453Z AUTO 18008KT 10SM CLR 12/08 A3006 RMK AO2 SLP177 T01220078
KLWD 180353Z AUTO 17007KT 10SM CLR 13/08 A3007 RMK AO2 SLP182 T01280078
KLWD 180253Z AUTO 18009KT 10SM CLR 14/08 A3007 RMK AO2 SLP183 T01390078 51004
KLWD 180153Z AUTO 18008KT 10SM CLR 14/08 A3007 RMK AO2 SLP182 T01440078
KLWD 180053Z AUTO 18007KT 10SM CLR 16/08 A3007 RMK AO2 SLP184 T01560078
KLWD 172353Z AUTO 18008KT 10SM CLR 17/08 A3006 RMK AO2 SLP179 T01720078 10217 20172 55001
KLWD 172253Z AUTO 20008KT 10SM CLR 19/08 A3005 RMK AO2 SLP176 T01940078
KLWD 172153Z AUTO 19011KT 10SM CLR 21/08 A3005 RMK AO2 SLP177 T02110078
KLWD 172053Z AUTO 18012KT 10SM CLR 22/07 A3006 RMK AO2 SLP179 T02170072 56023
KLWD 171953Z AUTO 20012G20KT 8SM CLR 22/07 A3008 RMK AO2 SLP185 T02170072